Time;durP1;ratioP1;P1;durP2;ratioP2;P2;SDS_P1;SDS_P2;PMS_P1;PMS_P2;Temp;Humidity;BMP_temperature;BMP_pressure;BME280_temperature;BME280_humidity;BME280_pressure;Samples;Min_cycle;Max_cycle;Signal;HPM_P1;HPM_P2
2022/06/10 00:01:58;;;;;;;;;0.00;0.00;;;;;;;;5102669;28;8866;-81
2022/06/10 00:04:23;;;;;;;;;0.00;0.00;;;;;;;;5101891;28;8817;-79
2022/06/10 00:06:49;;;;;;;;;0.00;0.00;;;;;;;;5102880;28;8820;-79
2022/06/10 00:09:14;;;;;;;;;0.00;0.00;;;;;;;;5103039;28;8793;-79
2022/06/10 00:11:39;;;;;;;;;1.25;0.00;;;;;;;;5101187;28;9657;-79
2022/06/10 00:14:05;;;;;;;;;0.50;0.00;;;;;;;;5101078;28;9159;-79
2022/06/10 00:16:31;;;;;;;;;0.75;0.00;;;;;;;;5102894;28;9388;-79
2022/06/10 00:18:56;;;;;;;;;0.00;0.00;;;;;;;;5102434;28;8812;-79
2022/06/10 00:21:22;;;;;;;;;0.00;0.00;;;;;;;;5101815;28;9808;-79
2022/06/10 00:23:47;;;;;;;;;0.00;0.00;;;;;;;;5102375;28;8798;-81
2022/06/10 00:26:14;;;;;;;;;0.00;0.00;;;;;;;;5102484;28;8769;-81
2022/06/10 00:28:40;;;;;;;;;0.00;0.00;;;;;;;;5102549;28;8801;-81
2022/06/10 00:31:06;;;;;;;;;0.00;0.00;;;;;;;;5102041;28;9704;-81
2022/06/10 00:33:34;;;;;;;;;0.00;0.00;;;;;;;;5101921;28;9690;-81
2022/06/10 00:35:59;;;;;;;;;0.00;0.00;;;;;;;;5101039;28;8788;-80
2022/06/10 00:38:25;;;;;;;;;0.00;0.00;;;;;;;;5101963;28;9720;-80
2022/06/10 00:40:51;;;;;;;;;0.00;0.00;;;;;;;;5102185;28;8870;-81
2022/06/10 00:43:19;;;;;;;;;0.00;0.00;;;;;;;;5102160;28;8789;-80
2022/06/10 00:45:47;;;;;;;;;0.00;0.00;;;;;;;;5102100;28;9620;-80
2022/06/10 00:48:16;;;;;;;;;1.00;0.00;;;;;;;;5100969;28;9659;-80
2022/06/10 00:50:41;;;;;;;;;0.00;0.00;;;;;;;;5101919;28;9961;-81
2022/06/10 00:53:10;;;;;;;;;0.00;0.00;;;;;;;;5099920;28;9714;-81
2022/06/10 00:55:37;;;;;;;;;0.00;0.00;;;;;;;;5101446;28;8800;-80
2022/06/10 00:58:06;;;;;;;;;0.00;0.00;;;;;;;;5101321;28;9711;-81
2022/06/10 01:00:32;;;;;;;;;0.00;0.00;;;;;;;;5099811;28;10526;-80
2022/06/10 01:02:57;;;;;;;;;0.00;0.00;;;;;;;;5101332;28;9933;-80
2022/06/10 01:05:24;;;;;;;;;0.75;0.00;;;;;;;;5102387;28;8789;-80
2022/06/10 01:07:52;;;;;;;;;0.00;0.00;;;;;;;;5101812;28;8790;-80
2022/06/10 01:10:18;;;;;;;;;0.00;0.00;;;;;;;;5101874;28;9836;-80
2022/06/10 01:13:22;;;;;;;;;0.00;0.00;;;;;;;;5101735;28;9795;-80
2022/06/10 01:15:53;;;;;;;;;1.00;0.00;;;;;;;;5039131;28;9800;-80
2022/06/10 01:18:31;;;;;;;;;0.00;0.00;;;;;;;;5039202;28;9990;-79
2022/06/10 01:21:14;;;;;;;;;0.00;0.00;;;;;;;;5038585;28;10078;-78
2022/06/10 01:23:45;;;;;;;;;0.00;0.00;;;;;;;;5039080;28;10982;-79
2022/06/10 01:26:21;;;;;;;;;0.00;0.00;;;;;;;;5038710;28;10002;-80
2022/06/10 01:29:05;;;;;;;;;0.00;0.00;;;;;;;;5038575;28;10818;-80
2022/06/10 01:31:30;;;;;;;;;0.00;0.00;;;;;;;;5038320;28;10105;-80
2022/06/10 01:34:14;;;;;;;;;0.00;0.00;;;;;;;;5037744;28;9967;-80
2022/06/10 01:36:45;;;;;;;;;1.00;0.00;;;;;;;;5038753;28;8789;-80
2022/06/10 01:39:10;;;;;;;;;0.00;0.00;;;;;;;;5038456;28;10153;-80
2022/06/10 01:41:37;;;;;;;;;1.50;0.00;;;;;;;;5037786;28;10131;-80
2022/06/10 01:44:02;;;;;;;;;0.00;0.00;;;;;;;;5038300;28;9598;-79
2022/06/10 01:46:27;;;;;;;;;0.00;0.00;;;;;;;;5055868;28;11444;-78
2022/06/10 01:49:03;;;;;;;;;0.00;0.00;;;;;;;;5099771;28;8812;-79
2022/06/10 01:51:48;;;;;;;;;0.00;0.00;;;;;;;;5099646;28;8791;-79
2022/06/10 01:54:23;;;;;;;;;0.00;0.00;;;;;;;;5099662;28;10838;-79
2022/06/10 01:56:51;;;;;;;;;0.00;0.00;;;;;;;;5100979;28;10173;-79
2022/06/10 01:59:23;;;;;;;;;0.00;0.00;;;;;;;;5101318;28;10052;-79
2022/06/10 02:01:52;;;;;;;;;0.00;0.00;;;;;;;;5101220;28;10187;-79
2022/06/10 02:04:20;;;;;;;;;0.00;0.00;;;;;;;;5100591;28;10096;-79
2022/06/10 02:06:57;;;;;;;;;0.00;0.00;;;;;;;;5100435;28;10140;-79
2022/06/10 02:09:24;;;;;;;;;1.00;0.00;;;;;;;;5099323;28;10042;-80
2022/06/10 02:11:52;;;;;;;;;0.00;0.00;;;;;;;;5099068;28;10759;-81
2022/06/10 02:14:22;;;;;;;;;0.25;0.25;;;;;;;;5100696;28;10080;-81
2022/06/10 02:16:49;;;;;;;;;0.00;0.00;;;;;;;;5099218;28;10104;-81
2022/06/10 02:19:18;;;;;;;;;0.00;0.00;;;;;;;;5100197;28;10053;-81
2022/06/10 02:21:57;;;;;;;;;0.00;0.00;;;;;;;;5099081;28;10096;-81
2022/06/10 02:24:22;;;;;;;;;0.00;0.00;;;;;;;;5098869;28;10100;-81
2022/06/10 02:26:49;;;;;;;;;0.00;0.00;;;;;;;;5100601;28;10205;-78
2022/06/10 02:29:17;;;;;;;;;0.00;0.00;;;;;;;;5100610;28;8773;-78
2022/06/10 02:31:44;;;;;;;;;0.00;0.00;;;;;;;;5098912;28;9873;-78
2022/06/10 02:34:10;;;;;;;;;0.00;0.00;;;;;;;;5098678;28;10017;-78
2022/06/10 02:36:36;;;;;;;;;0.00;0.00;;;;;;;;5098401;28;9896;-78
2022/06/10 02:39:08;;;;;;;;;0.00;0.00;;;;;;;;5100646;28;8927;-79
2022/06/10 02:41:49;;;;;;;;;0.00;0.00;;;;;;;;5100373;28;8820;-78
2022/06/10 02:44:20;;;;;;;;;0.75;0.00;;;;;;;;5098651;28;10029;-79
2022/06/10 02:46:54;;;;;;;;;0.00;0.00;;;;;;;;5099213;28;10019;-78
2022/06/10 02:49:20;;;;;;;;;0.00;0.00;;;;;;;;5099957;28;9999;-79
2022/06/10 02:51:47;;;;;;;;;0.00;0.00;;;;;;;;5099909;28;9949;-79
2022/06/10 02:54:15;;;;;;;;;0.00;0.00;;;;;;;;5100231;28;8786;-79
2022/06/10 02:56:40;;;;;;;;;0.00;0.00;;;;;;;;5099812;28;10010;-79
2022/06/10 03:02:04;;;;;;;;;0.00;0.00;;;;;;;;5100440;28;8786;-79
2022/06/10 03:04:42;;;;;;;;;0.00;0.00;;;;;;;;5099485;28;9941;-79
2022/06/10 03:07:12;;;;;;;;;0.00;0.00;;;;;;;;5098544;28;9978;-80
2022/06/10 03:09:41;;;;;;;;;0.00;0.00;;;;;;;;5100477;28;9934;-80
2022/06/10 03:12:09;;;;;;;;;0.00;0.00;;;;;;;;5098591;28;9874;-80
2022/06/10 03:14:44;;;;;;;;;0.00;0.00;;;;;;;;5099693;28;9846;-80
2022/06/10 03:17:20;;;;;;;;;0.00;0.00;;;;;;;;5100042;28;9889;-80
2022/06/10 03:20:03;;;;;;;;;0.00;0.00;;;;;;;;5100013;28;10899;-80
2022/06/10 03:22:28;;;;;;;;;0.00;0.00;;;;;;;;5100149;28;9931;-80
2022/06/10 03:25:09;;;;;;;;;0.00;0.00;;;;;;;;5098349;28;9867;-80
2022/06/10 03:27:54;;;;;;;;;0.00;0.00;;;;;;;;5100835;28;8781;-78
2022/06/10 03:30:23;;;;;;;;;0.00;0.00;;;;;;;;5099460;28;9899;-79
2022/06/10 03:32:52;;;;;;;;;0.00;0.00;;;;;;;;5099403;28;10096;-80
2022/06/10 03:35:21;;;;;;;;;0.00;0.00;;;;;;;;5099274;28;10063;-80
2022/06/10 03:37:47;;;;;;;;;0.00;0.00;;;;;;;;5097866;28;10041;-79
2022/06/10 03:40:31;;;;;;;;;0.00;0.00;;;;;;;;5099234;28;10010;-79
2022/06/10 03:42:58;;;;;;;;;0.00;0.00;;;;;;;;5099352;28;9850;-79
2022/06/10 03:45:26;;;;;;;;;0.00;0.00;;;;;;;;5099468;28;10031;-79
2022/06/10 03:47:51;;;;;;;;;0.25;0.00;;;;;;;;5097864;28;10071;-79
2022/06/10 03:50:21;;;;;;;;;0.00;0.00;;;;;;;;5099151;28;10165;-79
2022/06/10 03:52:47;;;;;;;;;0.00;0.00;;;;;;;;5098066;28;8773;-78
2022/06/10 03:55:15;;;;;;;;;0.00;0.00;;;;;;;;5078652;28;10142;-76
2022/06/10 03:57:41;;;;;;;;;0.00;0.00;;;;;;;;5080340;28;8898;-76
2022/06/10 04:00:06;;;;;;;;;0.00;0.00;;;;;;;;5081883;28;9939;-76
2022/06/10 04:02:32;;;;;;;;;0.00;0.00;;;;;;;;5081879;28;8788;-76
2022/06/10 04:04:57;;;;;;;;;0.00;0.00;;;;;;;;5079777;28;8815;-76
2022/06/10 04:07:22;;;;;;;;;1.00;0.25;;;;;;;;5081687;28;8788;-75
2022/06/10 04:09:48;;;;;;;;;1.00;1.00;;;;;;;;5080980;28;11527;-76
2022/06/10 04:12:15;;;;;;;;;0.00;0.00;;;;;;;;5080828;28;9609;-75
2022/06/10 04:14:43;;;;;;;;;0.00;0.00;;;;;;;;5081255;28;8851;-76
2022/06/10 04:17:09;;;;;;;;;0.00;0.00;;;;;;;;5081479;28;9781;-76
2022/06/10 04:19:36;;;;;;;;;1.00;1.00;;;;;;;;5081065;28;9916;-76
2022/06/10 04:22:01;;;;;;;;;0.00;0.00;;;;;;;;5081189;28;9926;-75
2022/06/10 04:24:26;;;;;;;;;0.75;0.00;;;;;;;;5080993;28;8869;-75
2022/06/10 04:26:52;;;;;;;;;0.00;0.00;;;;;;;;5081352;28;8804;-75
2022/06/10 04:29:17;;;;;;;;;0.00;0.00;;;;;;;;5081188;28;8918;-76
2022/06/10 04:31:43;;;;;;;;;0.25;0.00;;;;;;;;5080736;28;8793;-74
2022/06/10 04:34:08;;;;;;;;;0.00;0.00;;;;;;;;5080824;28;8823;-75
2022/06/10 04:36:34;;;;;;;;;0.75;0.00;;;;;;;;5080329;28;8796;-79
2022/06/10 04:38:59;;;;;;;;;0.00;0.00;;;;;;;;5078718;28;8819;-76
2022/06/10 04:41:25;;;;;;;;;0.00;0.00;;;;;;;;5080933;28;8890;-75
2022/06/10 04:43:50;;;;;;;;;0.00;0.00;;;;;;;;5081228;28;8781;-75
2022/06/10 04:46:23;;;;;;;;;0.00;0.00;;;;;;;;5080582;28;8819;-76
2022/06/10 04:48:48;;;;;;;;;0.25;0.25;;;;;;;;5081122;28;8871;-76
2022/06/10 04:51:13;;;;;;;;;0.00;0.00;;;;;;;;5098724;28;10161;-76
2022/06/10 04:53:38;;;;;;;;;1.00;0.00;;;;;;;;5093773;28;8788;-77
2022/06/10 04:56:04;;;;;;;;;1.25;0.00;;;;;;;;5079954;28;8819;-75
2022/06/10 04:58:29;;;;;;;;;1.00;0.00;;;;;;;;5080429;28;8796;-75
2022/06/10 05:00:54;;;;;;;;;0.00;0.00;;;;;;;;5101641;28;8797;-76
2022/06/10 05:03:19;;;;;;;;;0.00;0.00;;;;;;;;5101600;28;8829;-75
2022/06/10 05:05:45;;;;;;;;;0.00;0.00;;;;;;;;5100849;28;8784;-78
2022/06/10 05:08:12;;;;;;;;;0.00;0.00;;;;;;;;5086260;28;8828;-78
2022/06/10 05:10:37;;;;;;;;;0.00;0.00;;;;;;;;5101086;28;8821;-74
2022/06/10 05:13:03;;;;;;;;;0.00;0.00;;;;;;;;5099989;28;9838;-76
2022/06/10 05:15:29;;;;;;;;;0.00;0.00;;;;;;;;5100131;28;9725;-75
2022/06/10 05:17:56;;;;;;;;;0.00;0.00;;;;;;;;5099514;28;8898;-79
2022/06/10 05:20:23;;;;;;;;;0.00;0.00;;;;;;;;5098114;28;8890;-78
2022/06/10 05:22:49;;;;;;;;;0.00;0.00;;;;;;;;5101158;28;9859;-80
2022/06/10 05:25:15;;;;;;;;;0.00;0.00;;;;;;;;5091424;28;9883;-79
2022/06/10 05:27:40;;;;;;;;;0.00;0.00;;;;;;;;5100761;28;8793;-81
2022/06/10 05:30:06;;;;;;;;;0.00;0.00;;;;;;;;5095169;28;8866;-84
2022/06/10 05:32:31;;;;;;;;;0.00;0.00;;;;;;;;5082456;28;8788;-78
2022/06/10 05:34:57;;;;;;;;;0.00;0.00;;;;;;;;5079842;28;9625;-74
2022/06/10 05:37:24;;;;;;;;;0.00;0.00;;;;;;;;5079488;28;8952;-77
2022/06/10 05:39:49;;;;;;;;;0.00;0.00;;;;;;;;5084490;28;9489;-84
2022/06/10 05:42:14;;;;;;;;;0.00;0.00;;;;;;;;5089801;28;9512;-84
2022/06/10 05:44:41;;;;;;;;;0.00;0.00;;;;;;;;5086495;28;8839;-74
2022/06/10 05:47:08;;;;;;;;;0.00;0.00;;;;;;;;5089956;28;11417;-78
2022/06/10 05:49:36;;;;;;;;;0.00;0.00;;;;;;;;5088371;28;9670;-79
2022/06/10 05:52:01;;;;;;;;;0.00;0.00;;;;;;;;5087792;28;9646;-79
2022/06/10 05:54:27;;;;;;;;;0.00;0.00;;;;;;;;5087364;28;9472;-78
2022/06/10 05:56:53;;;;;;;;;0.00;0.00;;;;;;;;5088101;28;8902;-75
2022/06/10 05:59:18;;;;;;;;;0.00;0.00;;;;;;;;5086789;28;9604;-78
2022/06/10 06:01:44;;;;;;;;;0.00;0.00;;;;;;;;5087292;28;8912;-79
2022/06/10 06:04:09;;;;;;;;;0.00;0.00;;;;;;;;5083546;28;8849;-78
2022/06/10 06:06:35;;;;;;;;;0.00;0.00;;;;;;;;5078416;28;8834;-79
2022/06/10 06:09:00;;;;;;;;;0.50;0.00;;;;;;;;5075863;28;8799;-78
2022/06/10 06:11:25;;;;;;;;;0.00;0.00;;;;;;;;5078402;28;8788;-79
2022/06/10 06:13:51;;;;;;;;;0.00;0.00;;;;;;;;5078739;28;8806;-80
2022/06/10 06:16:17;;;;;;;;;0.00;0.00;;;;;;;;5079205;28;9457;-79
2022/06/10 06:18:43;;;;;;;;;1.25;0.00;;;;;;;;5079660;28;8902;-79
2022/06/10 06:21:09;;;;;;;;;0.00;0.00;;;;;;;;5080049;28;9564;-79
2022/06/10 06:23:34;;;;;;;;;0.00;0.00;;;;;;;;5079673;28;9447;-79
2022/06/10 06:26:00;;;;;;;;;0.00;0.00;;;;;;;;5077805;28;8803;-79
2022/06/10 06:28:27;;;;;;;;;0.00;0.00;;;;;;;;5079744;28;8818;-79
2022/06/10 06:30:52;;;;;;;;;0.75;0.00;;;;;;;;5078815;28;8777;-79
2022/06/10 06:33:18;;;;;;;;;0.00;0.00;;;;;;;;5074810;28;9438;-79
2022/06/10 06:35:47;;;;;;;;;0.00;0.00;;;;;;;;5078433;28;10331;-79
2022/06/10 06:38:13;;;;;;;;;0.00;0.00;;;;;;;;5077276;28;8812;-79
2022/06/10 06:40:40;;;;;;;;;0.00;0.00;;;;;;;;5093975;28;9594;-80
2022/06/10 07:29:26;;;;;;;;;0.00;0.00;;;;;;;;4972137;27;4417713;-77
2022/06/10 07:31:53;;;;;;;;;1.00;0.00;;;;;;;;5121485;27;22726;-76
2022/06/10 07:34:19;;;;;;;;;0.00;0.00;;;;;;;;5124340;27;9333;-78
2022/06/10 07:36:44;;;;;;;;;0.00;0.00;;;;;;;;5125152;27;8797;-78
2022/06/10 07:39:09;;;;;;;;;0.00;0.00;;;;;;;;5124504;27;8981;-77
2022/06/10 07:44:20;;;;;;;;;0.00;0.00;;;;;;;;5124303;27;8897;-73
2022/06/10 07:46:46;;;;;;;;;0.00;0.00;;;;;;;;5125052;27;8793;-76
2022/06/10 07:49:11;;;;;;;;;0.00;0.00;;;;;;;;5122264;27;8923;-75
2022/06/10 07:51:36;;;;;;;;;0.00;0.00;;;;;;;;5122298;27;11419;-75
2022/06/10 07:54:01;;;;;;;;;0.00;0.00;;;;;;;;5132550;27;8806;-84
2022/06/10 07:56:27;;;;;;;;;0.00;0.00;;;;;;;;5135461;27;8806;-77
2022/06/10 07:58:53;;;;;;;;;0.00;0.00;;;;;;;;5134914;27;8819;-80
2022/06/10 08:01:18;;;;;;;;;0.00;0.00;;;;;;;;5134902;27;8799;-93
2022/06/10 08:03:44;;;;;;;;;0.00;0.00;;;;;;;;5135536;27;8904;-91
2022/06/10 08:06:09;;;;;;;;;0.00;0.00;;;;;;;;5137275;27;8815;-91
2022/06/10 08:08:36;;;;;;;;;0.00;0.00;;;;;;;;5134822;27;9123;-92
2022/06/10 08:11:03;;;;;;;;;0.00;0.00;;;;;;;;5135679;27;8742;-90
2022/06/10 08:13:29;;;;;;;;;0.00;0.00;;;;;;;;5134174;27;8829;-91
2022/06/10 08:15:55;;;;;;;;;0.00;0.00;;;;;;;;5136563;27;8879;-92
2022/06/10 08:18:21;;;;;;;;;0.00;0.00;;;;;;;;5122793;27;9513;-81
2022/06/10 08:23:31;;;;;;;;;0.00;0.00;;;;;;;;5115426;28;8766;-83
2022/06/10 08:25:58;;;;;;;;;0.00;0.00;;;;;;;;5115095;27;8892;-83
2022/06/10 08:28:24;;;;;;;;;0.00;0.00;;;;;;;;5113507;27;8817;-82
2022/06/10 08:30:50;;;;;;;;;0.00;0.00;;;;;;;;5115069;27;8909;-84
2022/06/10 08:33:15;;;;;;;;;0.00;0.00;;;;;;;;5114642;27;12107;-76
2022/06/10 08:35:41;;;;;;;;;0.00;0.00;;;;;;;;5120497;27;10404;-75
2022/06/10 08:38:07;;;;;;;;;0.00;0.00;;;;;;;;5113217;27;8813;-78
2022/06/10 08:40:52;;;;;;;;;0.00;0.00;;;;;;;;5102003;27;8919;-78
2022/06/10 08:43:33;;;;;;;;;0.00;0.00;;;;;;;;5100404;28;8796;-78
2022/06/10 08:46:04;;;;;;;;;0.00;0.00;;;;;;;;5101020;28;8777;-78
2022/06/10 08:48:45;;;;;;;;;0.00;0.00;;;;;;;;5100468;28;8894;-79
2022/06/10 08:51:16;;;;;;;;;0.00;0.00;;;;;;;;5101048;28;8846;-81
2022/06/10 08:54:14;;;;;;;;;0.00;0.00;;;;;;;;5100619;28;8919;-78
2022/06/10 08:56:41;;;;;;;;;0.00;0.00;;;;;;;;5076777;28;8915;-79
2022/06/10 08:59:39;;;;;;;;;0.00;0.00;;;;;;;;5100557;28;8817;-79
2022/06/10 09:02:12;;;;;;;;;0.00;0.00;;;;;;;;5056726;28;8816;-85
2022/06/10 09:04:38;;;;;;;;;0.25;0.00;;;;;;;;5040361;28;8882;-85
2022/06/10 09:07:07;;;;;;;;;0.00;0.00;;;;;;;;5039735;28;8966;-83
2022/06/10 09:09:33;;;;;;;;;0.00;0.00;;;;;;;;5057681;28;8883;-81
2022/06/10 09:11:58;;;;;;;;;0.00;0.00;;;;;;;;5079994;28;8781;-84
2022/06/10 09:14:25;;;;;;;;;0.00;0.00;;;;;;;;5100381;28;8851;-76
2022/06/10 09:16:59;;;;;;;;;0.00;0.00;;;;;;;;5100803;28;8769;-76
2022/06/10 09:19:29;;;;;;;;;0.00;0.00;;;;;;;;5099681;28;8894;-82
2022/06/10 09:21:57;;;;;;;;;0.00;0.00;;;;;;;;5100064;28;8770;-81
2022/06/10 09:24:28;;;;;;;;;0.00;0.00;;;;;;;;5099865;28;9450;-80
2022/06/10 09:27:12;;;;;;;;;0.00;0.00;;;;;;;;5099230;28;8805;-77
2022/06/10 09:29:38;;;;;;;;;0.00;0.00;;;;;;;;5098447;28;8931;-82
2022/06/10 09:32:04;;;;;;;;;0.00;0.00;;;;;;;;5099598;28;8820;-84
2022/06/10 09:34:41;;;;;;;;;0.00;0.00;;;;;;;;5099844;28;8816;-80
2022/06/10 09:37:17;;;;;;;;;0.00;0.00;;;;;;;;5099485;28;8838;-79
2022/06/10 09:42:32;;;;;;;;;0.00;0.00;;;;;;;;5119009;28;8783;-80
2022/06/10 09:45:09;;;;;;;;;0.00;0.00;;;;;;;;5119316;27;8891;-75
2022/06/10 09:47:37;;;;;;;;;0.00;0.00;;;;;;;;5119205;27;8809;-78
2022/06/10 09:50:14;;;;;;;;;0.00;0.00;;;;;;;;5119057;27;8810;-77
2022/06/10 09:52:55;;;;;;;;;0.00;0.00;;;;;;;;5116814;27;9909;-81
2022/06/10 09:55:39;;;;;;;;;0.50;0.50;;;;;;;;5119790;27;8805;-77
2022/06/10 09:58:16;;;;;;;;;0.00;0.00;;;;;;;;5117499;28;11107;-78
2022/06/10 10:00:48;;;;;;;;;0.00;0.00;;;;;;;;5120076;27;9062;-78
2022/06/10 10:03:17;;;;;;;;;0.00;0.00;;;;;;;;5118680;28;8806;-79
2022/06/10 10:06:00;;;;;;;;;0.00;0.00;;;;;;;;5119938;27;9739;-79
2022/06/10 10:08:35;;;;;;;;;0.25;0.00;;;;;;;;5119138;27;9826;-79
2022/06/10 10:11:08;;;;;;;;;0.00;0.00;;;;;;;;5119841;27;8782;-79
2022/06/10 10:13:34;;;;;;;;;0.00;0.00;;;;;;;;5117003;28;8814;-80
2022/06/10 10:16:11;;;;;;;;;0.00;0.00;;;;;;;;5101319;27;8813;-79
2022/06/10 10:18:55;;;;;;;;;0.00;0.00;;;;;;;;5107658;28;8810;-77
2022/06/10 10:21:20;;;;;;;;;0.00;0.00;;;;;;;;5099415;28;8781;-82
2022/06/10 10:23:58;;;;;;;;;0.00;0.00;;;;;;;;5097918;28;8789;-82
2022/06/10 10:26:23;;;;;;;;;0.00;0.00;;;;;;;;5098971;28;8830;-83
2022/06/10 10:28:51;;;;;;;;;0.00;0.00;;;;;;;;5098810;28;8801;-85
2022/06/10 10:31:20;;;;;;;;;0.00;0.00;;;;;;;;5099412;28;9913;-84
2022/06/10 10:33:46;;;;;;;;;0.00;0.00;;;;;;;;5099067;28;8774;-85
2022/06/10 10:36:17;;;;;;;;;0.00;0.00;;;;;;;;5099081;28;8811;-85
2022/06/10 10:38:43;;;;;;;;;0.00;0.00;;;;;;;;5099387;28;8781;-83
2022/06/10 10:41:12;;;;;;;;;1.00;0.00;;;;;;;;5098757;28;8773;-84
2022/06/10 10:43:37;;;;;;;;;0.00;0.00;;;;;;;;5098909;28;9694;-79
2022/06/10 10:46:07;;;;;;;;;0.00;0.00;;;;;;;;5098983;28;8785;-87
2022/06/10 10:48:37;;;;;;;;;1.00;0.00;;;;;;;;5103480;28;8795;-85
2022/06/10 10:51:11;;;;;;;;;0.00;0.00;;;;;;;;5111208;27;8837;-87
2022/06/10 10:53:36;;;;;;;;;0.00;0.00;;;;;;;;5113393;28;8751;-76
2022/06/10 10:56:02;;;;;;;;;0.00;0.00;;;;;;;;5119642;27;8767;-81
2022/06/10 10:58:30;;;;;;;;;0.00;0.00;;;;;;;;5113263;27;8795;-87
2022/06/10 11:00:55;;;;;;;;;0.00;0.00;;;;;;;;5119363;27;11380;-84
2022/06/10 11:03:32;;;;;;;;;0.00;0.00;;;;;;;;5119753;27;8828;-83
2022/06/10 11:06:01;;;;;;;;;0.00;0.00;;;;;;;;5119230;27;8840;-84
2022/06/10 11:08:26;;;;;;;;;0.00;0.00;;;;;;;;5119447;27;9030;-80
2022/06/10 11:11:10;;;;;;;;;0.00;0.00;;;;;;;;5118171;28;8810;-85
2022/06/10 11:13:44;;;;;;;;;0.00;0.00;;;;;;;;5108454;27;8894;-79
2022/06/10 11:16:36;;;;;;;;;0.00;0.00;;;;;;;;5108236;28;8873;-79
2022/06/10 11:19:11;;;;;;;;;0.25;0.00;;;;;;;;5102428;28;8807;-78
2022/06/10 11:21:47;;;;;;;;;0.00;0.00;;;;;;;;5108821;28;8832;-81
2022/06/10 11:24:14;;;;;;;;;0.00;0.00;;;;;;;;5107648;28;8929;-81
2022/06/10 11:26:47;;;;;;;;;1.00;0.00;;;;;;;;5107273;27;8786;-81
2022/06/10 11:29:12;;;;;;;;;0.00;0.00;;;;;;;;5107555;28;8895;-80
2022/06/10 11:31:44;;;;;;;;;0.00;0.00;;;;;;;;5107128;27;8802;-81
2022/06/10 11:34:18;;;;;;;;;1.00;0.00;;;;;;;;5107859;28;9008;-84
2022/06/10 11:36:45;;;;;;;;;1.00;0.00;;;;;;;;5106101;27;9701;-82
2022/06/10 11:39:17;;;;;;;;;0.00;0.00;;;;;;;;5104527;28;8809;-80
2022/06/10 11:41:52;;;;;;;;;0.00;0.00;;;;;;;;5107131;27;8794;-82
2022/06/10 11:44:21;;;;;;;;;1.00;0.00;;;;;;;;5100804;28;9031;-81
2022/06/10 11:46:46;;;;;;;;;0.00;0.00;;;;;;;;5105571;28;8817;-81
2022/06/10 11:49:11;;;;;;;;;0.00;0.00;;;;;;;;5107400;27;8811;-84
2022/06/10 11:51:46;;;;;;;;;0.00;0.00;;;;;;;;5105489;28;8834;-88
2022/06/10 11:54:26;;;;;;;;;0.00;0.00;;;;;;;;5100194;28;8817;-82
2022/06/10 11:59:49;;;;;;;;;0.00;0.00;;;;;;;;5107468;28;8787;-82
2022/06/10 12:02:24;;;;;;;;;0.00;0.00;;;;;;;;5104287;28;9772;-82
2022/06/10 12:05:00;;;;;;;;;0.00;0.00;;;;;;;;5100622;28;8810;-81
2022/06/10 12:07:27;;;;;;;;;0.00;0.00;;;;;;;;5107859;28;8803;-92
2022/06/10 12:09:56;;;;;;;;;0.00;0.00;;;;;;;;5108102;27;8787;-91
2022/06/10 12:12:23;;;;;;;;;1.00;0.00;;;;;;;;5109233;28;8779;-92
2022/06/10 12:14:51;;;;;;;;;0.00;0.00;;;;;;;;5107484;28;8805;-90
2022/06/10 12:17:33;;;;;;;;;0.00;0.00;;;;;;;;5109709;28;8884;-84
2022/06/10 12:19:59;;;;;;;;;0.00;0.00;;;;;;;;5110885;28;8874;-83
2022/06/10 12:22:25;;;;;;;;;0.33;0.33;;;;;;;;5107598;27;8825;-89
2022/06/10 12:24:50;;;;;;;;;0.00;0.00;;;;;;;;5102795;28;9074;-82
2022/06/10 12:27:21;;;;;;;;;1.67;0.00;;;;;;;;5107158;27;8982;-88
2022/06/10 12:30:02;;;;;;;;;0.50;0.00;;;;;;;;5110010;28;8911;-91
2022/06/10 12:32:37;;;;;;;;;0.00;0.00;;;;;;;;5109418;28;10364;-81
2022/06/10 12:35:08;;;;;;;;;0.00;0.00;;;;;;;;5108096;27;8800;-79
2022/06/10 12:37:44;;;;;;;;;0.00;0.00;;;;;;;;5107653;28;8793;-79
2022/06/10 12:40:17;;;;;;;;;0.00;0.00;;;;;;;;5109139;28;8840;-78
2022/06/10 12:42:45;;;;;;;;;0.00;0.00;;;;;;;;5108398;27;8801;-78
2022/06/10 12:45:30;;;;;;;;;0.00;0.00;;;;;;;;5109618;28;8928;-78
2022/06/10 12:47:57;;;;;;;;;0.00;0.00;;;;;;;;5109098;28;8794;-78
2022/06/10 12:50:22;;;;;;;;;0.00;0.00;;;;;;;;5109846;28;8797;-77
2022/06/10 12:52:57;;;;;;;;;0.00;0.00;;;;;;;;5109061;27;8877;-80
2022/06/10 12:55:26;;;;;;;;;0.00;0.00;;;;;;;;5107981;28;8844;-79
2022/06/10 12:57:51;;;;;;;;;0.00;0.00;;;;;;;;5107620;27;8802;-77
2022/06/10 13:00:23;;;;;;;;;0.00;0.00;;;;;;;;5109489;27;8826;-77
2022/06/10 13:02:48;;;;;;;;;0.00;0.00;;;;;;;;5111044;28;8789;-76
2022/06/10 13:05:32;;;;;;;;;0.00;0.00;;;;;;;;5108401;27;8848;-78
2022/06/10 13:07:58;;;;;;;;;1.00;1.00;;;;;;;;5107753;28;8829;-86
2022/06/10 13:10:30;;;;;;;;;0.00;0.00;;;;;;;;5092503;28;10452;-91
2022/06/10 13:12:59;;;;;;;;;0.00;0.00;;;;;;;;5106359;28;8793;-86
2022/06/10 13:15:27;;;;;;;;;0.00;0.00;;;;;;;;5109399;27;8779;-74
2022/06/10 13:18:12;;;;;;;;;0.00;0.00;;;;;;;;5108920;28;8872;-83
2022/06/10 13:20:38;;;;;;;;;0.00;0.00;;;;;;;;5107740;28;8786;-84
2022/06/10 13:23:09;;;;;;;;;0.00;0.00;;;;;;;;5108859;27;9338;-80
2022/06/10 13:25:34;;;;;;;;;0.00;0.00;;;;;;;;5106983;28;8939;-79
2022/06/10 13:28:00;;;;;;;;;0.67;0.00;;;;;;;;5107284;27;8809;-78
2022/06/10 13:30:30;;;;;;;;;0.33;0.00;;;;;;;;5109862;27;8882;-78
2022/06/10 13:33:02;;;;;;;;;0.00;0.00;;;;;;;;5109626;28;9772;-76
2022/06/10 13:35:29;;;;;;;;;0.00;0.00;;;;;;;;5109693;28;8793;-79
2022/06/10 13:37:57;;;;;;;;;0.00;0.00;;;;;;;;5106892;28;8754;-80
2022/06/10 13:40:24;;;;;;;;;0.00;0.00;;;;;;;;5107522;28;8818;-79
2022/06/10 13:42:52;;;;;;;;;0.00;0.00;;;;;;;;5109579;28;8937;-80
2022/06/10 13:45:18;;;;;;;;;0.00;0.00;;;;;;;;5110095;28;8860;-86
2022/06/10 13:47:52;;;;;;;;;0.00;0.00;;;;;;;;5109776;28;8826;-86
2022/06/10 13:53:18;;;;;;;;;0.00;0.00;;;;;;;;5104225;28;8914;-82
2022/06/10 13:55:51;;;;;;;;;0.00;0.00;;;;;;;;5097881;28;8958;-84
2022/06/10 13:58:24;;;;;;;;;0.00;0.00;;;;;;;;5098187;28;8820;-85
2022/06/10 14:01:01;;;;;;;;;0.00;0.00;;;;;;;;5099971;28;8850;-79
2022/06/10 14:03:29;;;;;;;;;0.00;0.00;;;;;;;;5100319;28;8907;-77
2022/06/10 14:06:01;;;;;;;;;0.00;0.00;;;;;;;;5099474;28;8782;-79
2022/06/10 14:08:28;;;;;;;;;0.00;0.00;;;;;;;;5099593;28;8975;-81
2022/06/10 14:10:53;;;;;;;;;0.00;0.00;;;;;;;;5100795;28;8791;-78
2022/06/10 14:13:20;;;;;;;;;0.00;0.00;;;;;;;;5108753;28;9560;-84
2022/06/10 14:15:52;;;;;;;;;0.00;0.00;;;;;;;;5107412;27;8781;-83
2022/06/10 14:18:23;;;;;;;;;0.00;0.00;;;;;;;;5109741;27;8871;-83
2022/06/10 14:20:51;;;;;;;;;0.00;0.00;;;;;;;;5106729;28;8902;-82
2022/06/10 14:23:25;;;;;;;;;0.00;0.00;;;;;;;;5107561;27;8793;-83
2022/06/10 14:26:20;;;;;;;;;0.00;0.00;;;;;;;;5106648;28;8789;-85
2022/06/10 14:28:46;;;;;;;;;0.00;0.00;;;;;;;;5107981;28;8936;-83
2022/06/10 14:31:31;;;;;;;;;0.00;0.00;;;;;;;;5107688;28;9035;-82
2022/06/10 14:33:57;;;;;;;;;0.00;0.00;;;;;;;;5108359;28;8774;-82
2022/06/10 14:36:24;;;;;;;;;0.00;0.00;;;;;;;;5106792;27;8785;-82
2022/06/10 14:39:01;;;;;;;;;0.00;0.00;;;;;;;;5104073;27;9282;-83
2022/06/10 14:41:27;;;;;;;;;0.75;0.00;;;;;;;;5108962;28;8742;-81
2022/06/10 14:43:55;;;;;;;;;0.00;0.00;;;;;;;;5107715;28;8801;-88
2022/06/10 14:46:21;;;;;;;;;0.00;0.00;;;;;;;;5107029;27;8790;-79
2022/06/10 14:48:48;;;;;;;;;0.00;0.00;;;;;;;;5107498;28;8842;-81
2022/06/10 14:51:17;;;;;;;;;0.00;0.00;;;;;;;;5107387;28;8919;-79
2022/06/10 14:53:48;;;;;;;;;0.00;0.00;;;;;;;;5106480;27;8801;-79
2022/06/10 14:56:15;;;;;;;;;0.25;0.00;;;;;;;;5105721;28;8820;-79
2022/06/10 14:58:41;;;;;;;;;0.00;0.00;;;;;;;;5108965;28;8864;-81
2022/06/10 15:01:16;;;;;;;;;0.00;0.00;;;;;;;;5106732;27;8797;-77
2022/06/10 15:03:41;;;;;;;;;1.00;0.00;;;;;;;;5106897;27;8880;-79
2022/06/10 15:06:20;;;;;;;;;0.00;0.00;;;;;;;;5109583;28;9487;-85
2022/06/10 15:08:53;;;;;;;;;0.00;0.00;;;;;;;;5106296;28;9087;-87
2022/06/10 15:11:19;;;;;;;;;0.00;0.00;;;;;;;;5119831;28;8834;-83
2022/06/10 15:13:47;;;;;;;;;0.00;0.00;;;;;;;;5121490;27;8822;-89
2022/06/10 15:16:14;;;;;;;;;0.00;0.00;;;;;;;;5120599;27;11580;-85
2022/06/10 15:18:40;;;;;;;;;0.00;0.00;;;;;;;;5120174;27;8778;-80
2022/06/10 15:21:05;;;;;;;;;0.25;0.00;;;;;;;;5120326;27;8895;-85
2022/06/10 15:23:32;;;;;;;;;0.00;0.00;;;;;;;;5118825;28;8799;-81
2022/06/10 15:25:59;;;;;;;;;0.00;0.00;;;;;;;;5120117;27;8798;-78
2022/06/10 15:28:25;;;;;;;;;0.25;0.00;;;;;;;;5118729;27;8873;-78
2022/06/10 15:30:52;;;;;;;;;0.00;0.00;;;;;;;;5119623;27;8813;-77
2022/06/10 15:33:18;;;;;;;;;0.00;0.00;;;;;;;;5120112;27;8786;-76
2022/06/10 15:41:35;;;;;;;;;0.00;0.00;;;;;;;;5084298;27;8790;-82
2022/06/10 15:44:02;;;;;;;;;0.00;0.00;;;;;;;;5118949;27;8763;-80
2022/06/10 15:46:28;;;;;;;;;0.00;0.00;;;;;;;;5118744;28;8798;-78
2022/06/10 15:48:54;;;;;;;;;0.00;0.00;;;;;;;;5116315;27;8801;-79
2022/06/10 15:51:40;;;;;;;;;0.00;0.00;;;;;;;;5106321;28;8828;-78
2022/06/10 15:54:25;;;;;;;;;0.00;0.00;;;;;;;;5110371;28;8801;-79
2022/06/10 15:57:07;;;;;;;;;1.00;0.00;;;;;;;;5110709;28;8819;-79
2022/06/10 15:59:35;;;;;;;;;0.00;0.00;;;;;;;;5109037;28;8755;-80
2022/06/10 16:02:00;;;;;;;;;0.00;0.00;;;;;;;;5116733;28;8763;-80
2022/06/10 16:04:27;;;;;;;;;1.00;0.00;;;;;;;;5116038;27;8937;-79
2022/06/10 16:06:52;;;;;;;;;0.00;0.00;;;;;;;;5113650;28;8775;-79
2022/06/10 16:09:18;;;;;;;;;0.00;0.00;;;;;;;;5106947;28;8933;-80
2022/06/10 16:12:57;;;;;;;;;0.00;0.00;;;;;;;;5111061;28;8797;-79
2022/06/10 16:14:31;;;;;;;;;0.75;0.00;;;;;;;;5109631;28;8817;-79
2022/06/10 16:16:56;;;;;;;;;0.00;0.00;;;;;;;;5111595;27;8767;-82
2022/06/10 16:19:22;;;;;;;;;0.33;0.00;;;;;;;;5112149;28;8835;-80